createdAt,value
2022-12-09T00:00:07.616Z,16.35
2022-12-09T00:02:34.944Z,15.45
2022-12-09T00:05:02.157Z,14.80
2022-12-09T00:07:30.474Z,15.40
2022-12-09T00:09:57.406Z,15.65
2022-12-09T00:12:24.279Z,15.73
2022-12-09T00:14:51.226Z,14.52
2022-12-09T00:17:18.110Z,15.27
2022-12-09T00:19:45.994Z,15.63
2022-12-09T00:22:12.810Z,15.23
2022-12-09T00:24:39.747Z,14.90
2022-12-09T00:27:06.552Z,14.43
2022-12-09T00:29:33.397Z,15.27
2022-12-09T00:32:00.228Z,12.45
2022-12-09T00:34:27.042Z,14.25
2022-12-09T00:36:53.960Z,13.82
2022-12-09T00:39:20.958Z,13.68
2022-12-09T00:41:49.234Z,14.57
2022-12-09T00:44:16.160Z,14.65
2022-12-09T00:46:43.296Z,14.25
2022-12-09T00:49:11.104Z,14.38
2022-12-09T00:51:38.152Z,12.57
2022-12-09T00:54:05.265Z,12.95
2022-12-09T00:56:32.239Z,14.10
2022-12-09T00:58:59.560Z,15.02
2022-12-09T01:01:27.875Z,14.25
2022-12-09T01:03:55.331Z,13.15
2022-12-09T01:06:24.965Z,13.57
2022-12-09T01:08:52.338Z,14.27
2022-12-09T01:11:23.193Z,13.10
2022-12-09T01:13:50.549Z,13.27
2022-12-09T01:16:20.476Z,12.65
2022-12-09T01:18:47.966Z,13.13
2022-12-09T01:21:15.303Z,12.55
2022-12-09T01:23:42.073Z,11.02
2022-12-09T01:26:09.317Z,12.40
2022-12-09T01:28:38.312Z,11.10
2022-12-09T01:31:14.726Z,11.55
2022-12-09T01:33:42.559Z,10.45
2022-12-09T01:36:19.719Z,10.23
2022-12-09T01:38:47.920Z,9.63
2022-12-09T01:41:16.597Z,10.15
2022-12-09T01:43:44.316Z,10.77
2022-12-09T01:46:11.406Z,10.02
2022-12-09T01:48:47.196Z,10.15
2022-12-09T01:51:19.646Z,9.82
2022-12-09T01:53:50.203Z,11.23
2022-12-09T01:56:27.146Z,12.45
2022-12-09T01:58:55.012Z,12.20
2022-12-09T02:01:22.531Z,11.95
2022-12-09T02:03:49.679Z,13.02
2022-12-09T02:06:17.008Z,11.57
2022-12-09T02:08:46.411Z,12.30
2022-12-09T02:11:17.807Z,12.98
2022-12-09T02:14:16.892Z,12.68
2022-12-09T02:16:51.292Z,12.80
2022-12-09T02:19:24.065Z,11.68
2022-12-09T02:21:58.946Z,12.93
2022-12-09T02:24:28.764Z,12.85
2022-12-09T02:27:12.729Z,12.40
2022-12-09T02:30:12.296Z,13.20
2022-12-09T02:32:45.351Z,13.43
2022-12-09T02:35:20.254Z,13.48
2022-12-09T02:38:15.689Z,15.43
2022-12-09T02:41:03.286Z,16.10
2022-12-09T02:43:49.435Z,16.20
2022-12-09T02:46:19.506Z,17.30
2022-12-09T02:48:52.533Z,19.15
2022-12-09T02:51:20.807Z,21.50
2022-12-09T02:53:54.091Z,24.27
2022-12-09T02:56:21.736Z,23.95
2022-12-09T02:58:49.787Z,23.17
2022-12-09T03:01:36.053Z,23.15
2022-12-09T03:04:05.300Z,23.20
2022-12-09T03:06:38.593Z,24.83
2022-12-09T03:09:13.614Z,24.15
2022-12-09T03:11:41.479Z,23.33
2022-12-09T03:14:11.157Z,23.33
2022-12-09T03:16:54.563Z,22.52
2022-12-09T03:19:38.180Z,23.40
2022-12-09T03:22:09.858Z,21.00
2022-12-09T03:24:50.365Z,25.38
2022-12-09T03:27:22.640Z,23.38
2022-12-09T03:29:51.086Z,24.85
2022-12-09T03:32:20.849Z,23.23
2022-12-09T03:34:50.388Z,21.05
2022-12-09T03:37:21.342Z,24.25
2022-12-09T03:39:50.059Z,21.77
2022-12-09T03:42:23.283Z,22.38
2022-12-09T03:44:55.162Z,23.33
2022-12-09T03:49:48.849Z,18.65
2022-12-09T03:52:40.268Z,22.85
2022-12-09T03:55:19.830Z,21.67
2022-12-09T03:57:50.497Z,19.17
2022-12-09T04:00:18.392Z,20.17
2022-12-09T04:02:45.424Z,21.63
2022-12-09T04:05:13.353Z,21.90
2022-12-09T04:07:40.481Z,23.25
2022-12-09T04:10:08.447Z,21.17
2022-12-09T04:12:35.712Z,22.58
2022-12-09T04:15:02.628Z,22.92
2022-12-09T04:17:31.400Z,21.65
2022-12-09T04:19:58.229Z,20.95
2022-12-09T04:22:25.006Z,21.35
2022-12-09T04:24:51.877Z,20.88
2022-12-09T04:27:18.981Z,23.60
2022-12-09T04:29:45.860Z,23.38
2022-12-09T04:32:12.725Z,21.83
2022-12-09T04:34:40.109Z,21.33
2022-12-09T04:37:06.929Z,22.90
2022-12-09T04:39:34.340Z,22.05
2022-12-09T04:42:01.269Z,23.65
2022-12-09T04:44:28.051Z,23.00
2022-12-09T04:46:54.898Z,23.38
2022-12-09T04:49:22.168Z,22.10
2022-12-09T04:51:49.104Z,24.00
2022-12-09T04:54:16.704Z,22.58
2022-12-09T04:56:43.771Z,22.75
2022-12-09T04:59:11.073Z,23.35
2022-12-09T05:01:38.064Z,22.20
2022-12-09T05:04:05.591Z,23.20
2022-12-09T05:06:33.012Z,21.98
2022-12-09T05:09:00.599Z,23.08
2022-12-09T05:11:27.543Z,22.85
2022-12-09T05:13:55.222Z,23.55
2022-12-09T05:16:22.568Z,22.85
2022-12-09T05:18:50.022Z,22.08
2022-12-09T05:21:19.388Z,22.88
2022-12-09T05:23:47.279Z,22.73
2022-12-09T05:26:17.908Z,24.02
2022-12-09T05:28:45.653Z,22.15
2022-12-09T05:31:19.992Z,22.80
2022-12-09T05:33:47.862Z,23.77
2022-12-09T05:36:17.720Z,23.77
2022-12-09T05:38:45.053Z,22.17
2022-12-09T05:41:12.786Z,22.67
2022-12-09T05:43:40.173Z,23.20
2022-12-09T05:46:07.809Z,23.35
2022-12-09T05:48:36.416Z,21.67
2022-12-09T05:51:07.314Z,22.48
2022-12-09T05:53:34.636Z,22.38
2022-12-09T05:56:02.066Z,22.00
2022-12-09T05:58:29.657Z,21.90
2022-12-09T06:00:58.043Z,20.80
2022-12-09T06:03:25.410Z,21.52
2022-12-09T06:05:52.692Z,23.67
2022-12-09T06:08:20.498Z,21.35
2022-12-09T06:10:47.501Z,22.42
2022-12-09T06:13:15.326Z,22.77
2022-12-09T06:15:42.456Z,21.88
2022-12-09T06:18:09.848Z,21.58
2022-12-09T06:20:41.129Z,21.13
2022-12-09T06:23:08.558Z,22.53
2022-12-09T06:25:35.864Z,22.02
2022-12-09T06:28:04.111Z,22.17
2022-12-09T06:30:31.836Z,21.67
2022-12-09T06:32:59.133Z,22.48
2022-12-09T06:35:26.837Z,19.98
2022-12-09T06:37:54.144Z,21.70
2022-12-09T06:40:24.838Z,21.20
2022-12-09T06:42:52.037Z,21.83
2022-12-09T06:45:19.947Z,21.45
2022-12-09T06:47:48.319Z,20.88
2022-12-09T06:50:16.085Z,20.42
2022-12-09T06:52:43.036Z,20.85
2022-12-09T06:55:11.028Z,21.40
2022-12-09T06:57:38.256Z,18.98
2022-12-09T07:00:05.902Z,20.42
2022-12-09T07:02:37.131Z,20.60
2022-12-09T07:05:05.938Z,20.95
2022-12-09T07:07:33.835Z,19.98
2022-12-09T07:10:10.637Z,20.38
2022-12-09T07:12:37.780Z,19.58
2022-12-09T07:15:05.615Z,20.25
2022-12-09T07:17:33.252Z,20.02
2022-12-09T07:20:06.402Z,20.23
2022-12-09T07:22:34.340Z,18.98
2022-12-09T07:25:01.592Z,19.60
2022-12-09T07:27:28.654Z,21.27
2022-12-09T07:29:55.519Z,20.58
2022-12-09T07:32:22.346Z,22.33
2022-12-09T07:34:49.817Z,20.40
2022-12-09T07:37:17.067Z,21.33
2022-12-09T07:39:44.247Z,20.52
2022-12-09T07:42:11.350Z,21.10
2022-12-09T07:44:38.295Z,20.40
2022-12-09T07:47:05.515Z,22.02
2022-12-09T07:49:33.208Z,19.75
2022-12-09T07:52:00.111Z,19.85
2022-12-09T07:54:27.096Z,20.73
2022-12-09T07:56:54.176Z,19.83
2022-12-09T07:59:21.131Z,20.58
2022-12-09T08:01:48.118Z,19.02
2022-12-09T08:04:15.543Z,20.23
2022-12-09T08:06:43.383Z,19.13
2022-12-09T08:09:13.472Z,19.60
2022-12-09T08:11:40.957Z,18.65
2022-12-09T08:14:12.512Z,18.05
2022-12-09T08:19:08.519Z,17.63
2022-12-09T08:21:36.111Z,17.98
2022-12-09T08:24:05.952Z,19.35
2022-12-09T08:26:34.111Z,19.55
2022-12-09T08:29:01.352Z,17.67
2022-12-09T08:31:28.951Z,19.60
2022-12-09T08:33:56.789Z,19.13
2022-12-09T08:36:27.394Z,19.83
2022-12-09T08:38:55.434Z,19.15
2022-12-09T08:41:36.303Z,19.02
2022-12-09T08:44:12.183Z,18.10
2022-12-09T08:46:41.152Z,18.98
2022-12-09T08:49:09.205Z,19.25
2022-12-09T08:51:36.834Z,19.30
2022-12-09T08:54:05.065Z,18.70
2022-12-09T08:56:32.788Z,18.67
2022-12-09T08:59:00.525Z,18.63
2022-12-09T09:01:32.942Z,20.52
2022-12-09T09:04:08.444Z,21.55
2022-12-09T09:06:39.502Z,22.10
2022-12-09T09:09:08.983Z,23.77
2022-12-09T09:11:36.535Z,23.55
2022-12-09T09:14:05.936Z,21.70
2022-12-09T09:16:33.792Z,21.60
2022-12-09T09:19:03.663Z,21.70
2022-12-09T09:21:30.725Z,22.45
2022-12-09T09:23:59.008Z,21.17
2022-12-09T09:26:30.453Z,21.48
2022-12-09T09:28:58.114Z,22.48
2022-12-09T09:31:26.054Z,20.00
2022-12-09T09:33:53.973Z,20.33
2022-12-09T09:36:24.904Z,19.95
2022-12-09T09:38:56.831Z,20.30
2022-12-09T09:41:24.106Z,19.23
2022-12-09T09:43:51.903Z,18.83
2022-12-09T09:46:38.100Z,19.50
2022-12-09T09:49:11.354Z,19.60
2022-12-09T09:51:38.626Z,18.60
2022-12-09T09:54:09.049Z,18.25
2022-12-09T09:56:43.834Z,17.27
2022-12-09T09:59:26.339Z,18.20
2022-12-09T10:01:59.502Z,18.48
2022-12-09T10:04:42.749Z,17.42
2022-12-09T10:07:16.367Z,18.67
2022-12-09T10:09:54.749Z,18.55
2022-12-09T10:12:54.532Z,19.00
2022-12-09T10:15:31.377Z,17.25
2022-12-09T10:18:07.925Z,19.00
2022-12-09T10:20:35.126Z,18.40
2022-12-09T10:23:14.750Z,17.75
2022-12-09T10:25:53.894Z,17.60
2022-12-09T10:28:27.740Z,17.48
2022-12-09T10:30:58.366Z,18.60
2022-12-09T10:33:43.863Z,18.05
2022-12-09T10:36:28.258Z,18.13
2022-12-09T10:39:00.109Z,18.42
2022-12-09T10:42:18.174Z,16.92
2022-12-09T10:44:49.070Z,17.92
2022-12-09T10:47:28.270Z,18.53
2022-12-09T10:49:56.308Z,16.20
2022-12-09T10:52:27.699Z,18.42
2022-12-09T10:54:55.142Z,16.52
2022-12-09T10:57:27.515Z,17.90
2022-12-09T10:59:58.649Z,16.08
2022-12-09T11:02:26.519Z,17.02
2022-12-09T11:04:53.681Z,16.17
2022-12-09T11:07:22.902Z,16.20
2022-12-09T11:09:56.476Z,15.68
2022-12-09T11:12:34.807Z,15.98
2022-12-09T11:15:27.219Z,16.42
2022-12-09T11:17:56.753Z,16.80
2022-12-09T11:20:28.442Z,17.02
2022-12-09T11:23:01.666Z,16.80
2022-12-09T11:25:31.946Z,16.13
2022-12-09T11:28:03.245Z,15.35
2022-12-09T11:30:32.650Z,16.02
2022-12-09T11:33:14.766Z,15.05
2022-12-09T11:35:44.947Z,15.55
2022-12-09T11:38:40.085Z,15.55
2022-12-09T11:41:09.595Z,15.95
2022-12-09T11:43:44.628Z,15.00
2022-12-09T11:46:14.048Z,14.18
2022-12-09T11:48:48.529Z,16.10
2022-12-09T11:51:37.390Z,15.93
2022-12-09T11:54:09.939Z,15.13
2022-12-09T11:56:40.054Z,14.57
2022-12-09T11:59:14.726Z,13.40
2022-12-09T12:02:21.436Z,13.95
2022-12-09T12:05:21.211Z,13.18
2022-12-09T12:08:17.535Z,13.40
2022-12-09T12:10:53.385Z,14.82
2022-12-09T12:13:27.049Z,13.43
2022-12-09T12:16:39.738Z,14.43
2022-12-09T12:19:33.513Z,13.93
2022-12-09T12:22:27.124Z,13.38
2022-12-09T12:24:53.736Z,13.40
2022-12-09T12:27:23.288Z,14.00
2022-12-09T12:29:56.619Z,14.05
2022-12-09T12:32:38.218Z,13.82
2022-12-09T12:35:20.324Z,12.73
2022-12-09T12:38:44.152Z,13.40
2022-12-09T12:41:31.495Z,13.70
2022-12-09T12:45:02.052Z,14.18
2022-12-09T12:47:55.091Z,14.35
2022-12-09T12:50:50.609Z,13.05
2022-12-09T12:53:35.746Z,14.48
2022-12-09T12:56:07.008Z,13.85
2022-12-09T12:58:48.424Z,13.75
2022-12-09T13:01:30.113Z,13.57
2022-12-09T13:04:15.216Z,12.65
2022-12-09T13:06:57.073Z,13.30
2022-12-09T13:09:42.521Z,13.68
2022-12-09T13:12:40.987Z,14.95
2022-12-09T13:15:14.724Z,13.10
2022-12-09T13:17:45.921Z,12.15
2022-12-09T13:20:39.970Z,12.30
2022-12-09T13:23:17.691Z,12.27
2022-12-09T13:25:57.333Z,13.05
2022-12-09T13:28:37.850Z,11.05
2022-12-09T13:31:09.340Z,12.00
2022-12-09T13:33:41.922Z,12.93
2022-12-09T13:36:19.198Z,12.32
2022-12-09T13:38:45.994Z,12.70
2022-12-09T13:41:30.824Z,11.57
2022-12-09T13:44:06.909Z,12.50
2022-12-09T13:46:34.402Z,13.13
2022-12-09T13:49:21.862Z,12.13
2022-12-09T13:51:54.438Z,11.90
2022-12-09T13:54:25.022Z,11.32
2022-12-09T13:57:06.973Z,12.60
2022-12-09T14:02:24.447Z,12.38
2022-12-09T14:05:18.369Z,14.02
2022-12-09T14:07:52.243Z,11.93
2022-12-09T14:10:53.117Z,12.77
2022-12-09T14:13:30.272Z,12.00
2022-12-09T14:16:27.656Z,11.50
2022-12-09T14:18:56.110Z,11.85
2022-12-09T14:21:29.087Z,13.00
2022-12-09T14:24:08.180Z,11.07
2022-12-09T14:26:40.304Z,12.48
2022-12-09T14:29:07.990Z,11.70
2022-12-09T14:32:02.806Z,12.43
2022-12-09T14:34:36.985Z,11.82
2022-12-09T14:37:11.667Z,11.70
2022-12-09T14:39:47.599Z,11.55
2022-12-09T14:42:33.875Z,11.48
2022-12-09T14:45:16.467Z,13.55
2022-12-09T14:47:46.572Z,11.48
2022-12-09T14:50:18.272Z,11.80
2022-12-09T14:53:01.732Z,11.13
2022-12-09T14:55:30.555Z,11.50
2022-12-09T14:58:00.051Z,11.18
2022-12-09T15:00:28.476Z,11.68
2022-12-09T15:03:31.007Z,10.18
2022-12-09T15:06:01.734Z,10.48
2022-12-09T15:08:38.512Z,10.73
2022-12-09T15:11:08.151Z,11.05
2022-12-09T15:13:37.780Z,10.77
2022-12-09T15:16:10.550Z,10.50
2022-12-09T15:18:39.165Z,11.18
2022-12-09T15:21:06.292Z,11.27
2022-12-09T15:23:40.208Z,10.57
2022-12-09T15:26:19.441Z,11.55
2022-12-09T15:28:51.898Z,11.93
2022-12-09T15:31:21.764Z,11.93
2022-12-09T15:33:51.543Z,11.60
2022-12-09T15:36:27.372Z,13.35
2022-12-09T15:39:00.790Z,12.63
2022-12-09T15:41:52.096Z,11.32
2022-12-09T15:44:22.058Z,12.30
2022-12-09T15:46:51.729Z,12.38
2022-12-09T15:49:23.695Z,12.10
2022-12-09T15:51:54.552Z,12.40
2022-12-09T15:54:26.438Z,13.38
2022-12-09T15:57:02.195Z,11.75
2022-12-09T15:59:33.846Z,12.13
2022-12-09T16:02:01.569Z,11.75
2022-12-09T16:04:32.073Z,12.63
2022-12-09T16:07:06.845Z,11.88
2022-12-09T16:09:33.892Z,11.23
2022-12-09T16:12:00.721Z,11.63
2022-12-09T16:14:43.203Z,12.32
2022-12-09T16:17:25.530Z,11.05
2022-12-09T16:19:52.423Z,11.57
2022-12-09T16:22:25.318Z,12.40
2022-12-09T16:25:14.250Z,11.38
2022-12-09T16:27:48.872Z,11.02
2022-12-09T16:30:21.442Z,10.40
2022-12-09T16:32:51.569Z,10.77
2022-12-09T16:35:29.656Z,11.38
2022-12-09T16:37:56.736Z,10.57
2022-12-09T16:40:23.697Z,11.15
2022-12-09T16:42:53.012Z,11.15
2022-12-09T16:45:30.698Z,11.60
2022-12-09T16:47:58.975Z,11.32
2022-12-09T16:50:35.792Z,11.27
2022-12-09T16:53:16.224Z,10.90
2022-12-09T16:55:55.605Z,11.73
2022-12-09T16:58:23.101Z,11.35
2022-12-09T17:00:50.552Z,12.48
2022-12-09T17:03:32.116Z,11.38
2022-12-09T17:05:59.248Z,13.02
2022-12-09T17:08:26.171Z,12.43
2022-12-09T17:10:53.008Z,13.88
2022-12-09T17:13:19.981Z,12.65
2022-12-09T17:15:46.813Z,12.65
2022-12-09T17:18:13.793Z,12.18
2022-12-09T17:20:40.596Z,11.88
2022-12-09T17:23:07.840Z,12.60
2022-12-09T17:25:35.122Z,12.70
2022-12-09T17:28:04.300Z,12.95
2022-12-09T17:30:31.235Z,12.82
2022-12-09T17:33:01.019Z,12.73
2022-12-09T17:35:28.040Z,12.57
2022-12-09T17:37:55.218Z,12.05
2022-12-09T17:40:22.153Z,13.05
2022-12-09T17:42:49.000Z,12.20
2022-12-09T17:45:15.882Z,12.05
2022-12-09T17:47:42.804Z,12.35
2022-12-09T17:50:10.132Z,12.15
2022-12-09T17:52:37.318Z,11.98
2022-12-09T17:55:04.859Z,13.68
2022-12-09T17:57:31.688Z,13.48
2022-12-09T17:59:58.445Z,13.23
2022-12-09T18:02:25.978Z,12.50
2022-12-09T18:04:53.055Z,12.85
2022-12-09T18:07:20.380Z,12.63
2022-12-09T18:09:52.836Z,12.65
2022-12-09T18:12:21.215Z,13.20
2022-12-09T18:14:47.975Z,12.00
2022-12-09T18:17:14.873Z,13.85
2022-12-09T18:19:41.721Z,14.02
2022-12-09T18:22:08.562Z,13.48
2022-12-09T18:24:35.513Z,13.48
2022-12-09T18:27:02.351Z,13.82
2022-12-09T18:29:29.532Z,12.90
2022-12-09T18:31:57.245Z,12.80
2022-12-09T18:34:25.964Z,12.65
2022-12-09T18:36:53.856Z,12.98
2022-12-09T18:39:22.046Z,13.75
2022-12-09T18:41:49.328Z,12.98
2022-12-09T18:44:16.637Z,13.13
2022-12-09T18:46:46.316Z,13.52
2022-12-09T18:49:14.979Z,11.93
2022-12-09T18:51:43.930Z,12.60
2022-12-09T18:54:26.671Z,13.43
2022-12-09T18:56:54.563Z,13.02
2022-12-09T18:59:22.922Z,11.85
2022-12-09T19:01:50.090Z,13.90
2022-12-09T19:04:20.484Z,12.32
2022-12-09T19:06:49.029Z,11.88
2022-12-09T19:09:20.479Z,12.15
2022-12-09T19:11:49.167Z,12.45
2022-12-09T19:14:18.205Z,13.10
2022-12-09T19:16:46.200Z,13.00
2022-12-09T19:19:16.052Z,12.50
2022-12-09T19:21:43.623Z,12.23
2022-12-09T19:24:15.496Z,12.45
2022-12-09T19:29:13.844Z,11.38
2022-12-09T19:31:46.746Z,12.00
2022-12-09T19:34:21.309Z,12.73
2022-12-09T19:36:49.716Z,12.90
2022-12-09T19:39:24.991Z,13.05
2022-12-09T19:41:51.899Z,12.93
2022-12-09T19:44:44.517Z,13.30
2022-12-09T19:47:08.182Z,13.40
2022-12-09T19:49:36.365Z,13.30
2022-12-09T19:52:03.759Z,14.65
2022-12-09T19:54:30.645Z,14.93
2022-12-09T19:56:57.545Z,13.77
2022-12-09T19:59:27.026Z,14.23
2022-12-09T20:01:53.997Z,14.73
2022-12-09T20:04:48.153Z,14.38
2022-12-09T20:07:10.693Z,15.23
2022-12-09T20:09:37.962Z,15.50
2022-12-09T20:12:05.358Z,15.32
2022-12-09T20:14:32.529Z,16.30
2022-12-09T20:16:59.377Z,15.07
2022-12-09T20:19:26.258Z,15.70
2022-12-09T20:21:53.110Z,16.55
2022-12-09T20:24:19.955Z,16.70
2022-12-09T20:26:46.713Z,15.73
2022-12-09T20:29:13.542Z,16.98
2022-12-09T20:31:41.747Z,17.13
2022-12-09T20:34:12.449Z,15.52
2022-12-09T20:36:41.659Z,15.80
2022-12-09T20:39:13.143Z,16.13
2022-12-09T20:41:41.820Z,16.08
2022-12-09T20:44:09.920Z,16.75
2022-12-09T20:46:38.072Z,18.48
2022-12-09T20:49:04.983Z,17.08
2022-12-09T20:51:34.545Z,16.70
2022-12-09T20:54:01.628Z,16.38
2022-12-09T20:56:30.091Z,16.65
2022-12-09T20:58:57.244Z,17.92
2022-12-09T21:01:27.618Z,15.63
2022-12-09T21:03:55.497Z,16.33
2022-12-09T21:06:25.306Z,16.48
2022-12-09T21:08:53.877Z,15.15
2022-12-09T21:11:23.597Z,15.98
2022-12-09T21:13:52.665Z,15.32
2022-12-09T21:16:22.665Z,15.95
2022-12-09T21:18:51.123Z,14.20
2022-12-09T21:21:19.275Z,15.27
2022-12-09T21:23:46.999Z,14.88
2022-12-09T21:26:17.352Z,15.68
2022-12-09T21:28:45.971Z,15.00
2022-12-09T21:31:14.473Z,15.13
2022-12-09T21:33:43.345Z,15.25
2022-12-09T21:36:13.751Z,15.38
2022-12-09T21:38:41.137Z,14.90
2022-12-09T21:41:12.168Z,16.65
2022-12-09T21:43:39.502Z,15.35
2022-12-09T21:46:09.482Z,15.10
2022-12-09T21:48:36.427Z,15.90
2022-12-09T21:51:03.693Z,15.82
2022-12-09T21:53:31.613Z,14.80
2022-12-09T21:56:06.687Z,15.82
2022-12-09T21:58:34.771Z,16.40
2022-12-09T22:01:11.686Z,16.40
2022-12-09T22:03:39.380Z,17.33
2022-12-09T22:06:07.064Z,15.35
2022-12-09T22:08:35.004Z,15.93
2022-12-09T22:11:02.141Z,16.92
2022-12-09T22:13:29.125Z,16.08
2022-12-09T22:15:56.013Z,16.83
2022-12-09T22:18:22.881Z,17.52
2022-12-09T22:21:23.111Z,16.30
2022-12-09T22:23:37.576Z,16.80
2022-12-09T22:26:06.670Z,14.90
2022-12-09T22:28:33.850Z,15.27
2022-12-09T22:31:00.753Z,16.25
2022-12-09T22:33:29.529Z,14.80
2022-12-09T22:35:56.335Z,15.00
2022-12-09T22:38:23.085Z,14.15
2022-12-09T22:40:49.786Z,15.45
2022-12-09T22:43:16.465Z,14.68
2022-12-09T22:45:43.248Z,14.07
2022-12-09T22:48:10.078Z,13.10
2022-12-09T22:50:36.892Z,12.30
2022-12-09T22:53:03.670Z,11.73
2022-12-09T22:55:30.426Z,11.57
2022-12-09T22:57:57.146Z,12.43
2022-12-09T23:00:23.890Z,12.18
2022-12-09T23:02:50.723Z,9.85
2022-12-09T23:05:17.930Z,9.85
2022-12-09T23:07:44.646Z,9.88
2022-12-09T23:10:11.435Z,9.43
2022-12-09T23:12:38.201Z,9.23
2022-12-09T23:15:05.447Z,8.23
2022-12-09T23:17:32.364Z,7.40
2022-12-09T23:19:59.125Z,9.30
2022-12-09T23:22:25.824Z,8.73
2022-12-09T23:24:52.562Z,8.45
2022-12-09T23:27:19.300Z,9.07
2022-12-09T23:29:46.062Z,8.68
2022-12-09T23:32:12.762Z,8.65
2022-12-09T23:34:40.064Z,9.13
2022-12-09T23:37:07.064Z,9.20
2022-12-09T23:39:34.367Z,8.85
2022-12-09T23:42:01.079Z,8.73
2022-12-09T23:44:27.907Z,8.88
2022-12-09T23:46:54.861Z,8.82
2022-12-09T23:49:21.596Z,9.25
2022-12-09T23:51:48.322Z,8.68
2022-12-09T23:54:17.604Z,9.65
2022-12-09T23:56:49.756Z,8.82
2022-12-09T23:59:21.435Z,8.80
